sensor_id;sensor_type;location;lat;lon;timestamp;P1;durP1;ratioP1;P2;durP2;ratioP2
55114;SDS011;41010;53.252;5.786;2022-08-19T00:00:36;7.70;;;5.22;;
55114;SDS011;41010;53.252;5.786;2022-08-19T00:03:04;10.80;;;5.43;;
55114;SDS011;41010;53.252;5.786;2022-08-19T00:05:31;10.35;;;5.93;;
55114;SDS011;41010;53.252;5.786;2022-08-19T00:07:59;10.65;;;5.72;;
55114;SDS011;41010;53.252;5.786;2022-08-19T00:10:26;8.25;;;5.03;;
55114;SDS011;41010;53.252;5.786;2022-08-19T00:12:55;8.65;;;6.10;;
55114;SDS011;41010;53.252;5.786;2022-08-19T00:15:22;9.18;;;5.95;;
55114;SDS011;41010;53.252;5.786;2022-08-19T00:17:49;8.13;;;5.65;;
55114;SDS011;41010;53.252;5.786;2022-08-19T00:20:17;16.38;;;5.80;;
55114;SDS011;41010;53.252;5.786;2022-08-19T00:22:45;8.02;;;6.03;;
55114;SDS011;41010;53.252;5.786;2022-08-19T00:25:12;10.18;;;5.63;;
55114;SDS011;41010;53.252;5.786;2022-08-19T00:27:39;8.20;;;5.47;;
55114;SDS011;41010;53.252;5.786;2022-08-19T00:30:09;7.43;;;5.65;;
55114;SDS011;41010;53.252;5.786;2022-08-19T00:32:36;7.38;;;5.28;;
55114;SDS011;41010;53.252;5.786;2022-08-19T00:35:04;7.63;;;5.10;;
55114;SDS011;41010;53.252;5.786;2022-08-19T00:37:31;9.23;;;5.75;;
55114;SDS011;41010;53.252;5.786;2022-08-19T00:40:00;8.90;;;5.90;;
55114;SDS011;41010;53.252;5.786;2022-08-19T00:42:28;11.68;;;6.07;;
55114;SDS011;41010;53.252;5.786;2022-08-19T00:44:56;10.90;;;6.32;;
55114;SDS011;41010;53.252;5.786;2022-08-19T00:47:24;8.43;;;5.68;;
55114;SDS011;41010;53.252;5.786;2022-08-19T00:49:53;11.90;;;6.63;;
55114;SDS011;41010;53.252;5.786;2022-08-19T00:52:21;9.55;;;6.70;;
55114;SDS011;41010;53.252;5.786;2022-08-19T00:54:49;7.68;;;5.97;;
55114;SDS011;41010;53.252;5.786;2022-08-19T00:57:19;11.57;;;7.20;;
55114;SDS011;41010;53.252;5.786;2022-08-19T00:59:48;15.32;;;7.10;;
55114;SDS011;41010;53.252;5.786;2022-08-19T01:02:19;8.73;;;7.30;;
55114;SDS011;41010;53.252;5.786;2022-08-19T01:04:47;10.93;;;7.10;;
55114;SDS011;41010;53.252;5.786;2022-08-19T01:07:14;11.07;;;7.45;;
55114;SDS011;41010;53.252;5.786;2022-08-19T01:09:42;11.15;;;7.10;;
55114;SDS011;41010;53.252;5.786;2022-08-19T01:12:09;11.75;;;7.28;;
55114;SDS011;41010;53.252;5.786;2022-08-19T01:14:36;9.80;;;7.13;;
55114;SDS011;41010;53.252;5.786;2022-08-19T01:17:04;12.60;;;7.60;;
55114;SDS011;41010;53.252;5.786;2022-08-19T01:19:33;13.25;;;7.70;;
55114;SDS011;41010;53.252;5.786;2022-08-19T01:22:03;9.60;;;7.13;;
55114;SDS011;41010;53.252;5.786;2022-08-19T01:24:34;9.15;;;7.20;;
55114;SDS011;41010;53.252;5.786;2022-08-19T01:27:03;8.90;;;7.47;;
55114;SDS011;41010;53.252;5.786;2022-08-19T01:29:30;10.15;;;6.88;;
55114;SDS011;41010;53.252;5.786;2022-08-19T01:31:57;9.90;;;7.32;;
55114;SDS011;41010;53.252;5.786;2022-08-19T01:34:25;13.50;;;7.45;;
55114;SDS011;41010;53.252;5.786;2022-08-19T01:36:52;10.52;;;8.15;;
55114;SDS011;41010;53.252;5.786;2022-08-19T01:39:21;13.90;;;8.80;;
55114;SDS011;41010;53.252;5.786;2022-08-19T01:41:50;9.27;;;7.38;;
55114;SDS011;41010;53.252;5.786;2022-08-19T01:44:19;11.10;;;7.70;;
55114;SDS011;41010;53.252;5.786;2022-08-19T01:46:49;9.02;;;7.13;;
55114;SDS011;41010;53.252;5.786;2022-08-19T01:49:17;10.43;;;8.38;;
55114;SDS011;41010;53.252;5.786;2022-08-19T01:51:46;10.38;;;7.40;;
55114;SDS011;41010;53.252;5.786;2022-08-19T01:54:15;12.75;;;7.88;;
55114;SDS011;41010;53.252;5.786;2022-08-19T01:56:42;11.00;;;8.02;;
55114;SDS011;41010;53.252;5.786;2022-08-19T01:59:12;13.10;;;8.30;;
55114;SDS011;41010;53.252;5.786;2022-08-19T02:01:41;11.27;;;7.82;;
55114;SDS011;41010;53.252;5.786;2022-08-19T02:04:09;11.32;;;7.38;;
55114;SDS011;41010;53.252;5.786;2022-08-19T02:06:36;8.75;;;7.85;;
55114;SDS011;41010;53.252;5.786;2022-08-19T02:09:07;10.43;;;8.55;;
55114;SDS011;41010;53.252;5.786;2022-08-19T02:11:35;12.93;;;8.85;;
55114;SDS011;41010;53.252;5.786;2022-08-19T02:14:03;12.35;;;8.13;;
55114;SDS011;41010;53.252;5.786;2022-08-19T02:16:33;10.60;;;8.20;;
55114;SDS011;41010;53.252;5.786;2022-08-19T02:19:00;10.00;;;8.15;;
55114;SDS011;41010;53.252;5.786;2022-08-19T02:21:28;10.70;;;7.40;;
55114;SDS011;41010;53.252;5.786;2022-08-19T02:23:55;12.15;;;8.80;;
55114;SDS011;41010;53.252;5.786;2022-08-19T02:26:23;11.57;;;8.32;;
55114;SDS011;41010;53.252;5.786;2022-08-19T02:28:51;12.32;;;8.23;;
55114;SDS011;41010;53.252;5.786;2022-08-19T02:31:20;9.05;;;7.93;;
55114;SDS011;41010;53.252;5.786;2022-08-19T02:33:49;9.93;;;7.50;;
55114;SDS011;41010;53.252;5.786;2022-08-19T02:36:17;13.27;;;7.88;;
55114;SDS011;41010;53.252;5.786;2022-08-19T02:38:45;10.07;;;8.50;;
55114;SDS011;41010;53.252;5.786;2022-08-19T02:41:12;8.20;;;7.28;;
55114;SDS011;41010;53.252;5.786;2022-08-19T02:43:40;11.02;;;7.82;;
55114;SDS011;41010;53.252;5.786;2022-08-19T02:46:11;9.10;;;7.03;;
55114;SDS011;41010;53.252;5.786;2022-08-19T02:48:38;10.50;;;6.85;;
55114;SDS011;41010;53.252;5.786;2022-08-19T02:51:07;13.25;;;7.25;;
55114;SDS011;41010;53.252;5.786;2022-08-19T02:53:35;9.52;;;7.43;;
55114;SDS011;41010;53.252;5.786;2022-08-19T02:56:05;8.70;;;6.85;;
55114;SDS011;41010;53.252;5.786;2022-08-19T02:58:33;10.00;;;6.80;;
55114;SDS011;41010;53.252;5.786;2022-08-19T03:01:00;14.40;;;6.57;;
55114;SDS011;41010;53.252;5.786;2022-08-19T03:03:27;13.88;;;7.80;;
55114;SDS011;41010;53.252;5.786;2022-08-19T03:06:05;11.23;;;7.38;;
55114;SDS011;41010;53.252;5.786;2022-08-19T03:08:33;11.82;;;7.03;;
55114;SDS011;41010;53.252;5.786;2022-08-19T03:11:01;11.25;;;7.10;;
55114;SDS011;41010;53.252;5.786;2022-08-19T03:13:28;16.58;;;7.82;;
55114;SDS011;41010;53.252;5.786;2022-08-19T03:15:55;15.45;;;7.88;;
55114;SDS011;41010;53.252;5.786;2022-08-19T03:18:22;11.93;;;7.60;;
55114;SDS011;41010;53.252;5.786;2022-08-19T03:20:50;15.88;;;8.20;;
55114;SDS011;41010;53.252;5.786;2022-08-19T03:23:19;13.30;;;8.20;;
55114;SDS011;41010;53.252;5.786;2022-08-19T03:25:49;12.38;;;8.70;;
55114;SDS011;41010;53.252;5.786;2022-08-19T03:28:18;12.73;;;8.00;;
55114;SDS011;41010;53.252;5.786;2022-08-19T03:30:54;11.95;;;8.48;;
55114;SDS011;41010;53.252;5.786;2022-08-19T03:33:23;11.30;;;8.27;;
55114;SDS011;41010;53.252;5.786;2022-08-19T03:36:04;12.95;;;8.23;;
55114;SDS011;41010;53.252;5.786;2022-08-19T03:38:32;17.80;;;8.68;;
55114;SDS011;41010;53.252;5.786;2022-08-19T03:41:03;12.98;;;8.40;;
55114;SDS011;41010;53.252;5.786;2022-08-19T03:43:31;11.45;;;7.97;;
55114;SDS011;41010;53.252;5.786;2022-08-19T03:46:00;12.82;;;8.55;;
55114;SDS011;41010;53.252;5.786;2022-08-19T03:48:29;13.30;;;7.90;;
55114;SDS011;41010;53.252;5.786;2022-08-19T03:50:57;9.82;;;7.75;;
55114;SDS011;41010;53.252;5.786;2022-08-19T03:53:25;9.43;;;7.53;;
55114;SDS011;41010;53.252;5.786;2022-08-19T03:55:52;12.40;;;7.97;;
55114;SDS011;41010;53.252;5.786;2022-08-19T03:58:21;13.30;;;8.35;;
55114;SDS011;41010;53.252;5.786;2022-08-19T04:00:48;12.50;;;8.52;;
55114;SDS011;41010;53.252;5.786;2022-08-19T04:03:16;12.95;;;7.93;;
55114;SDS011;41010;53.252;5.786;2022-08-19T04:05:45;12.13;;;7.93;;
55114;SDS011;41010;53.252;5.786;2022-08-19T04:08:13;11.95;;;8.35;;
55114;SDS011;41010;53.252;5.786;2022-08-19T04:10:46;12.40;;;8.38;;
55114;SDS011;41010;53.252;5.786;2022-08-19T04:13:13;16.00;;;9.63;;
55114;SDS011;41010;53.252;5.786;2022-08-19T04:15:43;17.55;;;8.95;;
55114;SDS011;41010;53.252;5.786;2022-08-19T04:18:12;12.02;;;8.15;;
55114;SDS011;41010;53.252;5.786;2022-08-19T04:20:40;12.23;;;8.48;;
55114;SDS011;41010;53.252;5.786;2022-08-19T04:23:08;11.77;;;8.38;;
55114;SDS011;41010;53.252;5.786;2022-08-19T04:25:36;13.57;;;8.73;;
55114;SDS011;41010;53.252;5.786;2022-08-19T04:28:03;11.80;;;8.70;;
55114;SDS011;41010;53.252;5.786;2022-08-19T04:30:31;13.05;;;9.93;;
55114;SDS011;41010;53.252;5.786;2022-08-19T04:33:05;16.52;;;9.60;;
55114;SDS011;41010;53.252;5.786;2022-08-19T04:35:37;14.80;;;9.60;;
55114;SDS011;41010;53.252;5.786;2022-08-19T04:38:04;15.27;;;10.55;;
55114;SDS011;41010;53.252;5.786;2022-08-19T04:40:31;11.95;;;10.02;;
55114;SDS011;41010;53.252;5.786;2022-08-19T04:43:16;17.27;;;11.02;;
55114;SDS011;41010;53.252;5.786;2022-08-19T04:45:44;15.10;;;10.35;;
55114;SDS011;41010;53.252;5.786;2022-08-19T04:48:12;13.65;;;10.15;;
55114;SDS011;41010;53.252;5.786;2022-08-19T04:50:40;16.02;;;11.23;;
55114;SDS011;41010;53.252;5.786;2022-08-19T04:53:08;15.88;;;11.30;;
55114;SDS011;41010;53.252;5.786;2022-08-19T04:55:38;16.13;;;10.60;;
55114;SDS011;41010;53.252;5.786;2022-08-19T04:58:05;14.90;;;10.68;;
55114;SDS011;41010;53.252;5.786;2022-08-19T05:00:32;19.92;;;11.20;;
55114;SDS011;41010;53.252;5.786;2022-08-19T05:02:59;16.73;;;11.02;;
55114;SDS011;41010;53.252;5.786;2022-08-19T05:05:28;16.83;;;11.27;;
55114;SDS011;41010;53.252;5.786;2022-08-19T05:07:56;19.20;;;12.73;;
55114;SDS011;41010;53.252;5.786;2022-08-19T05:10:24;18.10;;;12.52;;
55114;SDS011;41010;53.252;5.786;2022-08-19T05:12:51;19.35;;;12.68;;
55114;SDS011;41010;53.252;5.786;2022-08-19T05:15:19;15.60;;;11.07;;
55114;SDS011;41010;53.252;5.786;2022-08-19T05:17:46;14.63;;;11.13;;
55114;SDS011;41010;53.252;5.786;2022-08-19T05:20:29;15.23;;;11.27;;
55114;SDS011;41010;53.252;5.786;2022-08-19T05:23:14;17.67;;;11.95;;
55114;SDS011;41010;53.252;5.786;2022-08-19T05:25:42;17.52;;;11.27;;
55114;SDS011;41010;53.252;5.786;2022-08-19T05:28:09;18.77;;;11.60;;
55114;SDS011;41010;53.252;5.786;2022-08-19T05:30:36;18.27;;;12.18;;
55114;SDS011;41010;53.252;5.786;2022-08-19T05:33:05;14.38;;;11.32;;
55114;SDS011;41010;53.252;5.786;2022-08-19T05:35:37;18.65;;;11.45;;
55114;SDS011;41010;53.252;5.786;2022-08-19T05:38:04;16.67;;;11.52;;
55114;SDS011;41010;53.252;5.786;2022-08-19T05:40:33;18.55;;;12.40;;
55114;SDS011;41010;53.252;5.786;2022-08-19T05:43:02;18.40;;;12.52;;
55114;SDS011;41010;53.252;5.786;2022-08-19T05:45:29;16.10;;;12.07;;
55114;SDS011;41010;53.252;5.786;2022-08-19T05:47:56;16.80;;;12.15;;
55114;SDS011;41010;53.252;5.786;2022-08-19T05:50:24;19.17;;;12.52;;
55114;SDS011;41010;53.252;5.786;2022-08-19T05:52:53;18.38;;;12.23;;
55114;SDS011;41010;53.252;5.786;2022-08-19T05:55:20;17.42;;;12.07;;
55114;SDS011;41010;53.252;5.786;2022-08-19T05:57:47;17.73;;;12.85;;
55114;SDS011;41010;53.252;5.786;2022-08-19T06:00:15;17.67;;;12.02;;
55114;SDS011;41010;53.252;5.786;2022-08-19T06:02:42;18.45;;;13.55;;
55114;SDS011;41010;53.252;5.786;2022-08-19T06:05:09;15.07;;;12.38;;
55114;SDS011;41010;53.252;5.786;2022-08-19T06:07:37;18.52;;;12.52;;
55114;SDS011;41010;53.252;5.786;2022-08-19T06:10:07;19.45;;;13.27;;
55114;SDS011;41010;53.252;5.786;2022-08-19T06:12:35;19.58;;;12.50;;
55114;SDS011;41010;53.252;5.786;2022-08-19T06:15:03;20.48;;;13.35;;
55114;SDS011;41010;53.252;5.786;2022-08-19T06:17:31;20.10;;;13.23;;
55114;SDS011;41010;53.252;5.786;2022-08-19T06:19:59;17.48;;;12.85;;
55114;SDS011;41010;53.252;5.786;2022-08-19T06:22:27;22.77;;;13.27;;
55114;SDS011;41010;53.252;5.786;2022-08-19T06:24:54;14.80;;;12.32;;
55114;SDS011;41010;53.252;5.786;2022-08-19T06:27:23;21.52;;;13.63;;
55114;SDS011;41010;53.252;5.786;2022-08-19T06:29:51;16.27;;;13.05;;
55114;SDS011;41010;53.252;5.786;2022-08-19T06:32:19;17.52;;;12.50;;
55114;SDS011;41010;53.252;5.786;2022-08-19T06:34:46;18.50;;;13.07;;
55114;SDS011;41010;53.252;5.786;2022-08-19T06:37:13;21.52;;;13.43;;
55114;SDS011;41010;53.252;5.786;2022-08-19T06:39:41;18.98;;;13.13;;
55114;SDS011;41010;53.252;5.786;2022-08-19T06:42:09;23.58;;;14.02;;
55114;SDS011;41010;53.252;5.786;2022-08-19T06:44:40;17.45;;;12.73;;
55114;SDS011;41010;53.252;5.786;2022-08-19T06:47:08;19.33;;;13.68;;
55114;SDS011;41010;53.252;5.786;2022-08-19T06:49:36;18.05;;;13.75;;
55114;SDS011;41010;53.252;5.786;2022-08-19T06:52:03;18.02;;;13.25;;
55114;SDS011;41010;53.252;5.786;2022-08-19T06:54:31;18.58;;;13.75;;
55114;SDS011;41010;53.252;5.786;2022-08-19T06:56:58;18.85;;;13.27;;
55114;SDS011;41010;53.252;5.786;2022-08-19T06:59:27;21.85;;;14.35;;
55114;SDS011;41010;53.252;5.786;2022-08-19T07:01:59;19.77;;;15.00;;
55114;SDS011;41010;53.252;5.786;2022-08-19T07:04:29;19.70;;;15.13;;
55114;SDS011;41010;53.252;5.786;2022-08-19T07:06:58;17.92;;;13.93;;
55114;SDS011;41010;53.252;5.786;2022-08-19T07:09:25;18.90;;;14.55;;
55114;SDS011;41010;53.252;5.786;2022-08-19T07:11:53;20.83;;;15.07;;
55114;SDS011;41010;53.252;5.786;2022-08-19T07:14:21;20.17;;;15.27;;
55114;SDS011;41010;53.252;5.786;2022-08-19T07:16:50;19.00;;;15.68;;
55114;SDS011;41010;53.252;5.786;2022-08-19T07:19:22;21.10;;;15.43;;
55114;SDS011;41010;53.252;5.786;2022-08-19T07:21:50;27.95;;;15.65;;
55114;SDS011;41010;53.252;5.786;2022-08-19T07:24:18;23.77;;;15.93;;
55114;SDS011;41010;53.252;5.786;2022-08-19T07:26:45;20.35;;;15.68;;
55114;SDS011;41010;53.252;5.786;2022-08-19T07:29:13;22.80;;;16.08;;
55114;SDS011;41010;53.252;5.786;2022-08-19T07:31:41;22.40;;;16.05;;
55114;SDS011;41010;53.252;5.786;2022-08-19T07:34:09;23.65;;;16.48;;
55114;SDS011;41010;53.252;5.786;2022-08-19T07:36:41;24.15;;;18.17;;
55114;SDS011;41010;53.252;5.786;2022-08-19T07:39:09;20.85;;;16.20;;
55114;SDS011;41010;53.252;5.786;2022-08-19T07:41:37;26.77;;;18.50;;
55114;SDS011;41010;53.252;5.786;2022-08-19T07:44:05;25.15;;;19.33;;
55114;SDS011;41010;53.252;5.786;2022-08-19T07:46:33;25.05;;;18.90;;
55114;SDS011;41010;53.252;5.786;2022-08-19T07:49:01;26.85;;;18.42;;
55114;SDS011;41010;53.252;5.786;2022-08-19T07:51:28;25.10;;;18.33;;
55114;SDS011;41010;53.252;5.786;2022-08-19T07:53:57;24.30;;;19.17;;
55114;SDS011;41010;53.252;5.786;2022-08-19T07:56:25;25.00;;;19.52;;
55114;SDS011;41010;53.252;5.786;2022-08-19T07:58:52;25.83;;;20.02;;
55114;SDS011;41010;53.252;5.786;2022-08-19T08:01:20;29.15;;;20.38;;
55114;SDS011;41010;53.252;5.786;2022-08-19T08:03:48;27.42;;;19.30;;
55114;SDS011;41010;53.252;5.786;2022-08-19T08:06:33;30.58;;;22.05;;
55114;SDS011;41010;53.252;5.786;2022-08-19T08:09:21;27.98;;;21.40;;
55114;SDS011;41010;53.252;5.786;2022-08-19T08:11:50;32.25;;;24.38;;
55114;SDS011;41010;53.252;5.786;2022-08-19T08:14:20;34.70;;;22.85;;
55114;SDS011;41010;53.252;5.786;2022-08-19T08:16:47;34.25;;;24.70;;
55114;SDS011;41010;53.252;5.786;2022-08-19T08:19:16;34.60;;;25.90;;
55114;SDS011;41010;53.252;5.786;2022-08-19T08:21:45;32.50;;;24.95;;
55114;SDS011;41010;53.252;5.786;2022-08-19T08:24:12;34.25;;;24.77;;
55114;SDS011;41010;53.252;5.786;2022-08-19T08:26:41;31.33;;;24.80;;
55114;SDS011;41010;53.252;5.786;2022-08-19T08:29:09;30.52;;;24.70;;
55114;SDS011;41010;53.252;5.786;2022-08-19T08:31:38;33.35;;;24.45;;
55114;SDS011;41010;53.252;5.786;2022-08-19T08:34:05;35.58;;;24.98;;
55114;SDS011;41010;53.252;5.786;2022-08-19T08:36:32;34.42;;;24.02;;
55114;SDS011;41010;53.252;5.786;2022-08-19T08:39:06;33.03;;;23.27;;
55114;SDS011;41010;53.252;5.786;2022-08-19T08:41:34;29.42;;;20.63;;
55114;SDS011;41010;53.252;5.786;2022-08-19T08:44:11;34.42;;;21.23;;
55114;SDS011;41010;53.252;5.786;2022-08-19T08:46:39;28.20;;;21.02;;
55114;SDS011;41010;53.252;5.786;2022-08-19T08:49:12;29.92;;;22.33;;
55114;SDS011;41010;53.252;5.786;2022-08-19T08:51:43;26.13;;;20.08;;
55114;SDS011;41010;53.252;5.786;2022-08-19T08:54:13;27.75;;;19.23;;
55114;SDS011;41010;53.252;5.786;2022-08-19T08:56:41;29.10;;;20.08;;
55114;SDS011;41010;53.252;5.786;2022-08-19T08:59:12;26.38;;;19.83;;
55114;SDS011;41010;53.252;5.786;2022-08-19T09:01:42;26.48;;;19.05;;
55114;SDS011;41010;53.252;5.786;2022-08-19T09:04:09;27.55;;;19.02;;
55114;SDS011;41010;53.252;5.786;2022-08-19T09:06:38;24.42;;;17.52;;
55114;SDS011;41010;53.252;5.786;2022-08-19T09:09:11;20.95;;;16.15;;
55114;SDS011;41010;53.252;5.786;2022-08-19T09:11:44;21.67;;;14.80;;
55114;SDS011;41010;53.252;5.786;2022-08-19T09:14:24;22.17;;;14.18;;
55114;SDS011;41010;53.252;5.786;2022-08-19T09:16:56;20.30;;;13.27;;
55114;SDS011;41010;53.252;5.786;2022-08-19T09:19:24;19.92;;;14.10;;
55114;SDS011;41010;53.252;5.786;2022-08-19T09:21:51;21.48;;;13.50;;
55114;SDS011;41010;53.252;5.786;2022-08-19T09:24:18;22.48;;;12.40;;
55114;SDS011;41010;53.252;5.786;2022-08-19T09:26:46;23.67;;;14.30;;
55114;SDS011;41010;53.252;5.786;2022-08-19T09:29:13;19.50;;;11.65;;
55114;SDS011;41010;53.252;5.786;2022-08-19T09:31:42;16.42;;;10.63;;
55114;SDS011;41010;53.252;5.786;2022-08-19T09:34:09;17.95;;;11.38;;
55114;SDS011;41010;53.252;5.786;2022-08-19T09:36:36;20.70;;;11.68;;
55114;SDS011;41010;53.252;5.786;2022-08-19T09:39:04;18.67;;;12.35;;
55114;SDS011;41010;53.252;5.786;2022-08-19T09:41:31;17.70;;;11.02;;
55114;SDS011;41010;53.252;5.786;2022-08-19T09:43:59;20.60;;;12.50;;
55114;SDS011;41010;53.252;5.786;2022-08-19T09:46:28;22.55;;;12.02;;
55114;SDS011;41010;53.252;5.786;2022-08-19T09:48:58;20.27;;;11.98;;
55114;SDS011;41010;53.252;5.786;2022-08-19T09:51:26;19.55;;;11.75;;
55114;SDS011;41010;53.252;5.786;2022-08-19T09:53:54;17.45;;;11.85;;
55114;SDS011;41010;53.252;5.786;2022-08-19T09:56:22;17.30;;;10.38;;
55114;SDS011;41010;53.252;5.786;2022-08-19T09:58:50;19.98;;;10.88;;
55114;SDS011;41010;53.252;5.786;2022-08-19T10:01:17;20.83;;;11.52;;
55114;SDS011;41010;53.252;5.786;2022-08-19T10:03:47;20.70;;;11.20;;
55114;SDS011;41010;53.252;5.786;2022-08-19T10:06:16;19.63;;;11.80;;
55114;SDS011;41010;53.252;5.786;2022-08-19T10:08:44;26.40;;;11.80;;
55114;SDS011;41010;53.252;5.786;2022-08-19T10:11:11;21.13;;;12.45;;
55114;SDS011;41010;53.252;5.786;2022-08-19T10:13:41;23.75;;;10.45;;
55114;SDS011;41010;53.252;5.786;2022-08-19T10:16:11;18.77;;;9.32;;
55114;SDS011;41010;53.252;5.786;2022-08-19T10:18:39;19.17;;;9.10;;
55114;SDS011;41010;53.252;5.786;2022-08-19T10:21:08;15.85;;;10.95;;
55114;SDS011;41010;53.252;5.786;2022-08-19T10:23:38;15.90;;;8.95;;
55114;SDS011;41010;53.252;5.786;2022-08-19T10:26:05;13.43;;;8.32;;
55114;SDS011;41010;53.252;5.786;2022-08-19T10:28:33;17.38;;;8.05;;
55114;SDS011;41010;53.252;5.786;2022-08-19T10:31:06;17.33;;;8.48;;
55114;SDS011;41010;53.252;5.786;2022-08-19T10:33:33;21.63;;;8.55;;
55114;SDS011;41010;53.252;5.786;2022-08-19T10:36:02;15.70;;;7.63;;
55114;SDS011;41010;53.252;5.786;2022-08-19T10:38:29;16.17;;;8.07;;
55114;SDS011;41010;53.252;5.786;2022-08-19T10:41:05;13.77;;;8.45;;
55114;SDS011;41010;53.252;5.786;2022-08-19T10:43:32;13.70;;;8.25;;
55114;SDS011;41010;53.252;5.786;2022-08-19T10:46:02;16.23;;;8.30;;
55114;SDS011;41010;53.252;5.786;2022-08-19T10:48:30;15.45;;;9.18;;
55114;SDS011;41010;53.252;5.786;2022-08-19T10:50:57;15.40;;;8.57;;
55114;SDS011;41010;53.252;5.786;2022-08-19T10:53:42;17.13;;;8.60;;
55114;SDS011;41010;53.252;5.786;2022-08-19T10:56:11;14.80;;;7.18;;
55114;SDS011;41010;53.252;5.786;2022-08-19T10:58:56;14.93;;;6.82;;
55114;SDS011;41010;53.252;5.786;2022-08-19T11:01:23;16.50;;;8.43;;
55114;SDS011;41010;53.252;5.786;2022-08-19T11:03:50;18.90;;;9.77;;
55114;SDS011;41010;53.252;5.786;2022-08-19T11:06:18;15.30;;;7.70;;
55114;SDS011;41010;53.252;5.786;2022-08-19T11:08:45;15.25;;;9.00;;
55114;SDS011;41010;53.252;5.786;2022-08-19T11:11:14;19.45;;;7.95;;
55114;SDS011;41010;53.252;5.786;2022-08-19T11:13:41;13.15;;;6.47;;
55114;SDS011;41010;53.252;5.786;2022-08-19T11:16:11;11.57;;;6.63;;
55114;SDS011;41010;53.252;5.786;2022-08-19T11:18:41;10.98;;;5.97;;
55114;SDS011;41010;53.252;5.786;2022-08-19T11:21:09;9.50;;;6.18;;
55114;SDS011;41010;53.252;5.786;2022-08-19T11:23:37;9.77;;;5.57;;
55114;SDS011;41010;53.252;5.786;2022-08-19T11:26:04;12.43;;;6.20;;
55114;SDS011;41010;53.252;5.786;2022-08-19T11:28:33;10.68;;;6.38;;
55114;SDS011;41010;53.252;5.786;2022-08-19T11:31:00;13.30;;;6.78;;
55114;SDS011;41010;53.252;5.786;2022-08-19T11:33:28;13.32;;;6.25;;
55114;SDS011;41010;53.252;5.786;2022-08-19T11:35:56;11.60;;;7.00;;
55114;SDS011;41010;53.252;5.786;2022-08-19T11:38:25;11.75;;;7.63;;
55114;SDS011;41010;53.252;5.786;2022-08-19T11:40:55;12.40;;;8.13;;
55114;SDS011;41010;53.252;5.786;2022-08-19T11:43:23;12.73;;;8.20;;
55114;SDS011;41010;53.252;5.786;2022-08-19T11:45:53;13.10;;;8.57;;
55114;SDS011;41010;53.252;5.786;2022-08-19T11:48:20;14.95;;;9.18;;
55114;SDS011;41010;53.252;5.786;2022-08-19T11:50:48;13.73;;;8.05;;
55114;SDS011;41010;53.252;5.786;2022-08-19T11:53:15;16.55;;;10.35;;
55114;SDS011;41010;53.252;5.786;2022-08-19T11:55:44;14.45;;;8.80;;
55114;SDS011;41010;53.252;5.786;2022-08-19T11:58:12;12.38;;;7.68;;
55114;SDS011;41010;53.252;5.786;2022-08-19T12:00:40;10.73;;;6.80;;
55114;SDS011;41010;53.252;5.786;2022-08-19T12:03:08;12.25;;;6.90;;
55114;SDS011;41010;53.252;5.786;2022-08-19T12:05:36;12.70;;;7.13;;
55114;SDS011;41010;53.252;5.786;2022-08-19T12:08:03;11.25;;;7.53;;
55114;SDS011;41010;53.252;5.786;2022-08-19T12:10:30;12.90;;;7.25;;
55114;SDS011;41010;53.252;5.786;2022-08-19T12:12:58;11.65;;;7.03;;
55114;SDS011;41010;53.252;5.786;2022-08-19T12:15:25;15.45;;;7.97;;
55114;SDS011;41010;53.252;5.786;2022-08-19T12:17:54;11.68;;;7.15;;
55114;SDS011;41010;53.252;5.786;2022-08-19T12:20:23;15.10;;;7.57;;
55114;SDS011;41010;53.252;5.786;2022-08-19T12:22:51;18.65;;;9.10;;
55114;SDS011;41010;53.252;5.786;2022-08-19T12:25:18;13.48;;;8.68;;
55114;SDS011;41010;53.252;5.786;2022-08-19T12:27:45;14.18;;;7.68;;
55114;SDS011;41010;53.252;5.786;2022-08-19T12:30:13;15.77;;;7.80;;
55114;SDS011;41010;53.252;5.786;2022-08-19T12:32:40;15.23;;;8.35;;
55114;SDS011;41010;53.252;5.786;2022-08-19T12:35:08;15.40;;;8.40;;
55114;SDS011;41010;53.252;5.786;2022-08-19T12:37:38;15.52;;;8.18;;
55114;SDS011;41010;53.252;5.786;2022-08-19T12:40:10;16.73;;;9.98;;
55114;SDS011;41010;53.252;5.786;2022-08-19T12:42:38;16.02;;;9.35;;
55114;SDS011;41010;53.252;5.786;2022-08-19T12:45:07;12.95;;;8.30;;
55114;SDS011;41010;53.252;5.786;2022-08-19T12:47:35;13.48;;;8.88;;
55114;SDS011;41010;53.252;5.786;2022-08-19T12:50:03;15.38;;;8.82;;
55114;SDS011;41010;53.252;5.786;2022-08-19T12:52:33;12.38;;;8.35;;
55114;SDS011;41010;53.252;5.786;2022-08-19T12:55:03;12.68;;;8.73;;
55114;SDS011;41010;53.252;5.786;2022-08-19T12:57:31;14.02;;;8.88;;
55114;SDS011;41010;53.252;5.786;2022-08-19T13:00:02;14.57;;;8.75;;
55114;SDS011;41010;53.252;5.786;2022-08-19T13:02:32;14.27;;;7.78;;
55114;SDS011;41010;53.252;5.786;2022-08-19T13:05:00;13.70;;;7.85;;
55114;SDS011;41010;53.252;5.786;2022-08-19T13:07:27;11.43;;;7.88;;
55114;SDS011;41010;53.252;5.786;2022-08-19T13:09:55;13.35;;;7.70;;
55114;SDS011;41010;53.252;5.786;2022-08-19T13:12:24;13.60;;;8.75;;
55114;SDS011;41010;53.252;5.786;2022-08-19T13:14:51;12.95;;;9.38;;
55114;SDS011;41010;53.252;5.786;2022-08-19T13:17:19;14.40;;;7.82;;
55114;SDS011;41010;53.252;5.786;2022-08-19T13:19:46;14.68;;;8.00;;
55114;SDS011;41010;53.252;5.786;2022-08-19T13:22:13;11.18;;;8.23;;
55114;SDS011;41010;53.252;5.786;2022-08-19T13:24:41;11.95;;;7.88;;
55114;SDS011;41010;53.252;5.786;2022-08-19T13:27:08;8.13;;;7.03;;
55114;SDS011;41010;53.252;5.786;2022-08-19T13:29:37;11.15;;;7.30;;
55114;SDS011;41010;53.252;5.786;2022-08-19T13:32:24;12.50;;;8.88;;
55114;SDS011;41010;53.252;5.786;2022-08-19T13:35:08;13.20;;;8.20;;
55114;SDS011;41010;53.252;5.786;2022-08-19T13:37:36;9.57;;;6.32;;
55114;SDS011;41010;53.252;5.786;2022-08-19T13:40:12;8.25;;;6.25;;
55114;SDS011;41010;53.252;5.786;2022-08-19T13:42:41;9.15;;;6.38;;
55114;SDS011;41010;53.252;5.786;2022-08-19T13:45:10;9.55;;;6.95;;
55114;SDS011;41010;53.252;5.786;2022-08-19T13:47:37;13.15;;;6.57;;
55114;SDS011;41010;53.252;5.786;2022-08-19T13:50:09;11.32;;;7.35;;
55114;SDS011;41010;53.252;5.786;2022-08-19T13:52:37;10.13;;;6.50;;
55114;SDS011;41010;53.252;5.786;2022-08-19T13:55:05;11.70;;;7.60;;
55114;SDS011;41010;53.252;5.786;2022-08-19T13:57:33;14.88;;;8.32;;
55114;SDS011;41010;53.252;5.786;2022-08-19T14:00:00;14.18;;;6.97;;
55114;SDS011;41010;53.252;5.786;2022-08-19T14:02:29;9.02;;;6.57;;
55114;SDS011;41010;53.252;5.786;2022-08-19T14:04:56;9.65;;;6.32;;
55114;SDS011;41010;53.252;5.786;2022-08-19T14:07:25;13.38;;;5.90;;
55114;SDS011;41010;53.252;5.786;2022-08-19T14:09:52;8.95;;;5.40;;
55114;SDS011;41010;53.252;5.786;2022-08-19T14:12:19;5.63;;;4.07;;
55114;SDS011;41010;53.252;5.786;2022-08-19T14:14:47;7.55;;;4.45;;
55114;SDS011;41010;53.252;5.786;2022-08-19T14:17:14;7.45;;;5.05;;
55114;SDS011;41010;53.252;5.786;2022-08-19T14:19:43;10.45;;;5.43;;
55114;SDS011;41010;53.252;5.786;2022-08-19T14:22:10;7.60;;;5.47;;
55114;SDS011;41010;53.252;5.786;2022-08-19T14:24:37;9.68;;;4.75;;
55114;SDS011;41010;53.252;5.786;2022-08-19T14:27:05;8.30;;;5.10;;
55114;SDS011;41010;53.252;5.786;2022-08-19T14:29:33;8.93;;;5.93;;
55114;SDS011;41010;53.252;5.786;2022-08-19T14:32:00;13.57;;;5.88;;
55114;SDS011;41010;53.252;5.786;2022-08-19T14:34:27;9.52;;;5.70;;
55114;SDS011;41010;53.252;5.786;2022-08-19T14:36:58;8.15;;;6.13;;
55114;SDS011;41010;53.252;5.786;2022-08-19T14:39:25;8.55;;;6.93;;